ADDS METAR Data INFO
IDs: Format: Raw Decoded Include TAF

Data at: 0312 UTC 20 Jul 2018

KD39 200255Z AUTO 03009KT 10SM OVC010 17/17 A2976 RMK AO2 60006 T01720165
KD39 200236Z AUTO 03005KT 10SM OVC010 17/17 A2976 RMK AO2 T01720165
KD39 200215Z AUTO 04006KT 10SM OVC012 17/17 A2974 RMK AO2 T01710165
KD39 200155Z AUTO 05008KT 10SM OVC010 17/17 A2974 RMK AO2 T01710165
KD39 200135Z AUTO 05012KT 7SM OVC010 17/17 A2972 RMK AO2 T01710166
KD39 200115Z AUTO 06008KT 10SM -DZ OVC010 17/17 A2972 RMK AO2 T01710165
KD39 200055Z AUTO 06009KT 10SM -DZ OVC008 17/17 A2972 RMK AO2 P0006 T01700165
KD39 200035Z AUTO 07011G17KT 7SM -RA OVC010 17/17 A2971 RMK AO2 P0005 T01700165
KD39 200015Z AUTO 08012G19KT 5SM -RA BKN008 OVC016 17/17 A2971 RMK AO2 P0002 T01730167
KD39 192355Z AUTO 09013G22KT 4SM RA BKN006 BKN010 OVC016 18/17 A2970 RMK AO2 P0031 60085 T01760170 10191 20176
KD39 192336Z AUTO 08014G18KT 3SM RA BKN006 OVC010 18/17 A2970 RMK AO2 P0025 T01780174
KD39 192315Z AUTO 08012G17KT 2 1/2SM +RA OVC006 18/18 A2970 RMK AO2 P0014 T01800176
KD39 192255Z AUTO 08013G16KT 4SM RA OVC006 18/18 A2970 RMK AO2 P0025 T01830180
KD39 192236Z AUTO 08009G17KT 4SM RA OVC006 19/18 A2970 RMK AO2 P0018 T01870183
KD39 192215Z AUTO 09010G16KT 5SM DZ OVC006 19/19 A2970 RMK AO2 P0003 T01900185
KD39 192155Z AUTO 08009KT 5SM DZ BKN006 OVC012 19/19 A2970 RMK AO2 P0008 T01900185
KD39 192136Z AUTO 08010KT 5SM -RA BKN006 OVC012 19/19 A2970 RMK AO2 P0008 T01890185
KD39 192115Z AUTO 09009G14KT 5SM RA OVC006 19/18 A2970 RMK AO2 P0004 T01880183
KD39 192055Z AUTO 09012G15KT 5SM RA OVC006 19/18 A2970 RMK AO2 P0009 60019 T01870182
KD39 192036Z AUTO 10012G16KT 5SM RA BKN008 OVC013 19/18 A2970 RMK AO2 P0002 T01890183
KD39 192015Z AUTO 10010G15KT 7SM -DZ OVC008 19/18 A2970 RMK AO2 T01890183
KD39 191955Z AUTO 09011G16KT 7SM DZ OVC010 19/18 A2971 RMK AO2 P0006 T01900182
KD39 191935Z AUTO 12008KT 4SM +RA BKN013 OVC019 19/18 A2971 RMK AO2 P0004 T01900182
KD39 191915Z AUTO 10008KT 10SM -DZ BKN013 OVC021 19/18 A2972 RMK AO2 LTG DSNT N P0001 T01910183
KD39 191856Z AUTO 10011G15KT 10SM -RA OVC011 19/18 A2972 RMK AO2 LTG DSNT SE P0003 T01900184
KD39 191835Z AUTO 11009KT 10SM -RA BKN010 OVC018 19/18 A2972 RMK AO2 P0002 T01900182
KD39 191815Z AUTO 11010KT 10SM -RA OVC008 19/19 A2972 RMK AO2 P0001 T01900185
KD39 191756Z AUTO 11011G17KT 10SM -RA OVC010 19/18 A2972 RMK AO2 P0006 60114 T01880182 10195 20180
KD39 191735Z AUTO 11015G21KT 10SM -RA OVC010 19/18 A2974 RMK AO2 P0003 T01900183
KD39 191715Z AUTO 12012G18KT 10SM -RA OVC008 19/19 A2974 RMK AO2 P0001 T01900185
KD39 191656Z AUTO 11014G20KT 5SM RA BKN008 OVC012 19/19 A2974 RMK AO2 P0029 T01940188
KD39 191635Z AUTO 11015G19KT 4SM RA SCT008 BKN012 OVC047 19/19 A2974 RMK AO2 P0024 T01910186
KD39 191615Z AUTO 10013G19KT 3SM +RA SCT010 BKN030 OVC047 19/19 A2974 RMK AO2 P0013 T01900185
KD39 191555Z AUTO 11012G16KT 5SM RA SCT007 BKN012 OVC032 19/19 A2976 RMK AO2 P0014 T01900185
KD39 191535Z AUTO 12011G16KT 4SM +RA OVC007 19/19 A2976 RMK AO2 P0009 T01900185
KD39 191515Z AUTO 10010G15KT 7SM -RA OVC005 19/19 A2976 RMK AO2 P0003 T01900185
KD39 191455Z AUTO 10010G14KT 5SM RA OVC005 19/18 A2977 RMK AO2 P0008 60063 T01870183
KD39 191435Z AUTO 09010G14KT 10SM -RA OVC005 19/18 A2977 RMK AO2 P0001 T01860183
KD39 191415Z AUTO 12008KT 10SM -RA OVC005 18/18 A2978 RMK AO2 P0001 T01840180
KD39 191355Z AUTO 08008KT 7SM RA SCT008 BKN013 OVC060 18/18 A2978 RMK AO2 P0033 T01810178
KD39 191335Z AUTO 08010KT 4SM RA SCT012 BKN043 OVC060 18/18 A2978 RMK AO2 P0029 T01800177
KD39 191315Z AUTO 08007KT 1 1/2SM +RA BKN009 OVC020 18/18 A2979 RMK AO2 LTG DSNT SE P0020 T01800175
KD39 191255Z AUTO 10004KT 4SM +RA BKN015 OVC020 18/18 A2981 RMK AO2 P0021 T01810175
KD39 191235Z AUTO 10004KT 7SM +RA BKN015 OVC034 18/18 A2981 RMK AO2 P0009 T01830175
KD39 191215Z AUTO 10004KT 7SM RA SCT016 BKN021 OVC050 18/17 A2982 RMK AO2 LTG DSNT S P0004 T01820172
KD39 191155Z AUTO 10005KT 10SM -RA SCT019 SCT041 BKN050 18/17 A2982 RMK AO2 P0001 60002 70002 T01830170 10190 20181
KD39 191135Z AUTO 11005KT 10SM -DZ SCT019 SCT050 BKN075 18/17 A2982 RMK AO2 P0001 T01820170
KD39 191115Z AUTO 09004KT 10SM SCT055 SCT065 OVC075 18/17 A2983 RMK AO2 LTG DSNT S T01830167
KD39 191055Z AUTO 09005KT 10SM SCT048 BKN075 OVC085 18/17 A2984 RMK AO2 LTG DSNT W T01830167
KD39 191035Z AUTO 08003KT 10SM SCT050 SCT075 OVC085 18/17 A2984 RMK AO2 LTG DSNT SE T01810167
KD39 191015Z AUTO 00000KT 10SM -RA SCT034 BKN050 OVC075 18/17 A2985 RMK AO2 LTG DSNT S T01830168
KD39 190955Z AUTO 00000KT 10SM -RA BKN034 OVC041 18/17 A2986 RMK AO2 P0001 T01830170
KD39 190935Z AUTO 00000KT 10SM -RA SCT033 BKN050 OVC060 18/17 A2987 RMK AO2 LTG DSNT S T01830167
KD39 190915Z AUTO 23003KT 10SM OVC048 18/17 A2988 RMK AO2 T01830165
KD39 190855Z AUTO 00000KT 10SM BKN048 OVC110 18/16 A2988 RMK AO2 T01830161
KD39 190835Z AUTO 10006KT 10SM SCT050 BKN110 18/16 A2988 RMK AO2 T01820161
KD39 190815Z AUTO 10006KT 10SM SCT110 18/16 A2989 RMK AO2 T01820161
KD39 190755Z AUTO 10006KT 10SM SCT050 18/16 A2989 RMK AO2 T01830162
KD39 190735Z AUTO 09006KT 10SM CLR 18/16 A2990 RMK AO2 LTG DSNT S T01830163
KD39 190715Z AUTO 09005KT 10SM CLR 19/16 A2990 RMK AO2 LTG DSNT W T01850163
KD39 190655Z AUTO 11004KT 10SM CLR 18/17 A2991 RMK AO2 T01830165
KD39 190635Z AUTO 11005KT 10SM CLR 19/17 A2991 RMK AO2 T01880165
KD39 190615Z AUTO 10004KT 10SM CLR 19/17 A2992 RMK AO2 T01900166
KD39 190555Z AUTO 11005KT 10SM CLR 19/17 A2992 RMK AO2 T01900167 10260 20187 402680138
KD39 190535Z AUTO 12005KT 10SM CLR 19/17 A2993 RMK AO2 T01890168
KD39 190515Z AUTO 11006KT 10SM CLR 20/17 A2993 RMK AO2 T01980170
KD39 190455Z AUTO 11006KT 10SM CLR 20/17 A2994 RMK AO2 T01950170
KD39 190435Z AUTO 12005KT 10SM CLR 19/17 A2995 RMK AO2 T01940172
KD39 190415Z AUTO 11005KT 10SM CLR 21/18 A2994 RMK AO2 T02050175
KD39 190355Z AUTO 11005KT 10SM CLR 20/18 A2995 RMK AO2 T01960176
KD39 190335Z AUTO 11004KT 10SM CLR 20/18 A2995 RMK AO2 T02030178
KD39 190315Z AUTO 11005KT 10SM CLR 21/18 A2995 RMK AO2 T02090180
KD39 190255Z AUTO 11006KT 10SM CLR 21/18 A2995 RMK AO2 T02130180
KD39 190235Z AUTO 13005KT 10SM CLR 21/18 A2996 RMK AO2 T02140184
KD39 190215Z AUTO 11005KT 10SM CLR 22/19 A2996 RMK AO2 T02200185
KD39 190155Z AUTO 12006KT 7SM CLR 23/19 A2996 RMK AO2 T02270185
KD39 190135Z AUTO 13004KT 10SM CLR 23/19 A2996 RMK AO2 T02330186
KD39 190115Z AUTO 12004KT 10SM CLR 24/19 A2996 RMK AO2 T02390187
KD39 190055Z AUTO 14005KT 10SM CLR 24/19 A2997 RMK AO2 T02430185
KD39 190035Z AUTO 14006KT 10SM CLR 25/19 A2997 RMK AO2 T02490185
KD39 190015Z AUTO 14007KT 10SM CLR 25/19 A2997 RMK AO2 T02530185
KD39 182355Z AUTO 12007KT 10SM SCT075 26/18 A2997 RMK AO2 T02600183 10268 20252
KD39 182335Z AUTO 14007KT 10SM SCT031 26/18 A2998 RMK AO2 T02610182
KD39 182315Z AUTO 14006KT 10SM SCT031 SCT041 26/19 A2998 RMK AO2 T02580186
KD39 182255Z AUTO 14008KT 10SM SCT031 27/19 A2999 RMK AO2 T02660191
KD39 182235Z AUTO 13008KT 10SM CLR 27/19 A2999 RMK AO2 T02660187
KD39 182215Z AUTO 13006KT 10SM SCT031 27/19 A3000 RMK AO2 T02650189
KD39 182155Z AUTO 16008KT 10SM CLR 26/19 A3001 RMK AO2 T02640185
KD39 182135Z AUTO 12007KT 10SM CLR 26/19 A3002 RMK AO2 T02630187
KD39 182115Z AUTO 14007KT 10SM CLR 26/18 A3002 RMK AO2 T02570182
KD39 182055Z AUTO 13005KT 10SM CLR 26/18 A3003 RMK AO2 T02550180
KD39 182035Z AUTO 16008KT 10SM CLR 26/18 A3004 RMK AO2 T02570184
KD39 182015Z AUTO 15005KT 10SM CLR 26/18 A3004 RMK AO2 T02550181
KD39 181955Z AUTO 17006KT 10SM CLR 26/18 A3005 RMK AO2 T02560177
KD39 181935Z AUTO 14006KT 10SM CLR 26/18 A3005 RMK AO2 T02560176
KD39 181915Z AUTO 18007KT 10SM CLR 26/18 A3005 RMK AO2 T02610180
KD39 181855Z AUTO 14007KT 10SM CLR 26/18 A3006 RMK AO2 T02580179
KD39 181835Z AUTO 15007KT 10SM CLR 25/18 A3006 RMK AO2 T02540176
KD39 181815Z AUTO 17007KT 10SM SCT035 SCT050 SCT070 26/17 A3006 RMK AO2 T02590174
KD39 181755Z AUTO 14008KT 10SM SCT035 BKN050 26/17 A3007 RMK AO2 T02550172 10266 20150
KD39 181735Z AUTO 18006KT 10SM BKN050 26/17 A3007 RMK AO2 T02600168
KD39 181715Z AUTO 14006KT 10SM SCT050 26/17 A3007 RMK AO2 T02560167
KD39 181655Z AUTO 14006KT 10SM CLR 26/16 A3008 RMK AO2 T02550164
KD39 181635Z AUTO 14007KT 10SM CLR 25/16 A3008 RMK AO2 T02510162
KD39 181615Z AUTO 15004KT 10SM CLR 24/16 A3009 RMK AO2 T02420161
KD39 181555Z AUTO 14007KT 10SM CLR 24/16 A3009 RMK AO2 T02360160
KD39 181535Z AUTO 19004KT 10SM SCT055 SCT070 24/16 A3009 RMK AO2 T02380157
KD39 181515Z AUTO 13005KT 10SM BKN047 BKN055 BKN070 23/16 A3010 RMK AO2 T02340159